sensor_id;sensor_type;location;lat;lon;timestamp;noise_LAeq;noise_LA_min;noise_LA_max;noise_LA01;noise_LA95
71628;Laerm;59477;52.374;9.916;2023-05-02T00:00:54;45.76;40.81;52.28;;
71628;Laerm;59477;52.374;9.916;2023-05-02T00:02:55;45.86;41.43;52.51;;
71628;Laerm;59477;52.374;9.916;2023-05-02T00:04:56;45.82;41.12;53.05;;
71628;Laerm;59477;52.374;9.916;2023-05-02T00:06:57;45.94;41.34;53.73;;
71628;Laerm;59477;52.374;9.916;2023-05-02T00:08:58;46.10;42.06;51.56;;
71628;Laerm;59477;52.374;9.916;2023-05-02T00:10:59;46.76;43.04;52.44;;
71628;Laerm;59477;52.374;9.916;2023-05-02T00:12:59;46.38;40.98;52.87;;
71628;Laerm;59477;52.374;9.916;2023-05-02T00:15:00;47.61;42.21;55.34;;
71628;Laerm;59477;52.374;9.916;2023-05-02T00:17:00;45.52;40.68;51.36;;
71628;Laerm;59477;52.374;9.916;2023-05-02T00:19:01;44.68;40.10;49.88;;
71628;Laerm;59477;52.374;9.916;2023-05-02T00:21:02;44.56;40.05;52.19;;
71628;Laerm;59477;52.374;9.916;2023-05-02T00:23:03;43.63;39.41;49.23;;
71628;Laerm;59477;52.374;9.916;2023-05-02T00:25:04;45.56;41.37;53.26;;
71628;Laerm;59477;52.374;9.916;2023-05-02T00:27:04;46.79;42.23;53.60;;
71628;Laerm;59477;52.374;9.916;2023-05-02T00:29:05;47.38;42.97;54.09;;
71628;Laerm;59477;52.374;9.916;2023-05-02T00:31:07;47.26;42.13;52.88;;
71628;Laerm;59477;52.374;9.916;2023-05-02T00:33:08;46.18;41.02;51.96;;
71628;Laerm;59477;52.374;9.916;2023-05-02T00:35:09;46.64;41.93;54.72;;
71628;Laerm;59477;52.374;9.916;2023-05-02T00:37:10;45.77;41.59;52.31;;
71628;Laerm;59477;52.374;9.916;2023-05-02T00:39:11;48.17;43.59;53.94;;
71628;Laerm;59477;52.374;9.916;2023-05-02T00:41:11;49.07;43.35;54.08;;
71628;Laerm;59477;52.374;9.916;2023-05-02T00:43:12;47.45;42.08;52.68;;
71628;Laerm;59477;52.374;9.916;2023-05-02T00:45:13;47.79;43.73;53.05;;
71628;Laerm;59477;52.374;9.916;2023-05-02T00:47:14;46.43;42.17;56.80;;
71628;Laerm;59477;52.374;9.916;2023-05-02T00:49:15;48.09;42.16;54.06;;
71628;Laerm;59477;52.374;9.916;2023-05-02T00:51:15;48.70;43.80;54.37;;
71628;Laerm;59477;52.374;9.916;2023-05-02T00:53:16;47.19;40.49;57.65;;
71628;Laerm;59477;52.374;9.916;2023-05-02T00:55:16;47.01;41.68;52.88;;
71628;Laerm;59477;52.374;9.916;2023-05-02T00:57:17;46.72;42.47;52.23;;
71628;Laerm;59477;52.374;9.916;2023-05-02T00:59:18;47.55;43.28;52.97;;
71628;Laerm;59477;52.374;9.916;2023-05-02T01:05:27;47.64;43.00;53.65;;
71628;Laerm;59477;52.374;9.916;2023-05-02T01:12:08;48.09;41.12;55.87;;
71628;Laerm;59477;52.374;9.916;2023-05-02T01:14:10;50.34;42.89;57.89;;
71628;Laerm;59477;52.374;9.916;2023-05-02T01:16:11;47.41;43.39;53.52;;
71628;Laerm;59477;52.374;9.916;2023-05-02T01:18:12;47.27;41.04;55.50;;
71628;Laerm;59477;52.374;9.916;2023-05-02T01:20:16;45.93;40.16;52.61;;
71628;Laerm;59477;52.374;9.916;2023-05-02T01:22:19;47.95;40.71;53.38;;
71628;Laerm;59477;52.374;9.916;2023-05-02T01:24:24;48.17;42.96;54.01;;
71628;Laerm;59477;52.374;9.916;2023-05-02T01:30:47;45.23;39.81;52.58;;
71628;Laerm;59477;52.374;9.916;2023-05-02T01:32:50;47.64;39.50;56.01;;
71628;Laerm;59477;52.374;9.916;2023-05-02T01:34:51;43.82;39.33;51.11;;
71628;Laerm;59477;52.374;9.916;2023-05-02T01:36:53;45.32;38.89;51.43;;
71628;Laerm;59477;52.374;9.916;2023-05-02T01:38:57;41.96;37.89;49.81;;
71628;Laerm;59477;52.374;9.916;2023-05-02T01:40:59;47.19;39.00;55.50;;
71628;Laerm;59477;52.374;9.916;2023-05-02T01:43:04;44.93;39.11;54.71;;
71628;Laerm;59477;52.374;9.916;2023-05-02T01:45:05;44.22;39.28;54.81;;
71628;Laerm;59477;52.374;9.916;2023-05-02T01:47:07;45.78;41.00;55.52;;
71628;Laerm;59477;52.374;9.916;2023-05-02T01:49:09;54.60;45.09;64.88;;
71628;Laerm;59477;52.374;9.916;2023-05-02T01:51:12;45.44;40.46;55.65;;
71628;Laerm;59477;52.374;9.916;2023-05-02T01:53:14;44.66;39.81;49.91;;
71628;Laerm;59477;52.374;9.916;2023-05-02T01:55:15;43.06;37.83;47.78;;
71628;Laerm;59477;52.374;9.916;2023-05-02T01:57:16;47.28;40.02;60.23;;
71628;Laerm;59477;52.374;9.916;2023-05-02T01:59:18;49.08;39.53;63.01;;
71628;Laerm;59477;52.374;9.916;2023-05-02T02:01:19;45.31;40.38;55.09;;
71628;Laerm;59477;52.374;9.916;2023-05-02T02:03:20;45.96;40.98;54.41;;
71628;Laerm;59477;52.374;9.916;2023-05-02T02:05:21;47.05;41.83;56.50;;
71628;Laerm;59477;52.374;9.916;2023-05-02T02:07:23;45.47;40.19;54.35;;
71628;Laerm;59477;52.374;9.916;2023-05-02T02:09:24;53.01;44.46;58.94;;
71628;Laerm;59477;52.374;9.916;2023-05-02T02:11:47;45.44;40.40;55.91;;
71628;Laerm;59477;52.374;9.916;2023-05-02T02:13:49;45.34;40.50;51.49;;
71628;Laerm;59477;52.374;9.916;2023-05-02T02:15:52;49.70;40.71;59.88;;
71628;Laerm;59477;52.374;9.916;2023-05-02T02:19:57;45.78;41.69;51.06;;
71628;Laerm;59477;52.374;9.916;2023-05-02T02:22:00;45.98;40.33;54.11;;
71628;Laerm;59477;52.374;9.916;2023-05-02T02:24:03;46.84;41.11;52.86;;
71628;Laerm;59477;52.374;9.916;2023-05-02T02:26:04;47.36;42.09;55.38;;
71628;Laerm;59477;52.374;9.916;2023-05-02T02:28:06;51.48;43.04;62.20;;
71628;Laerm;59477;52.374;9.916;2023-05-02T02:30:09;52.70;42.79;62.42;;
71628;Laerm;59477;52.374;9.916;2023-05-02T02:32:10;47.36;42.73;52.83;;
71628;Laerm;59477;52.374;9.916;2023-05-02T02:34:11;46.79;42.53;55.14;;
71628;Laerm;59477;52.374;9.916;2023-05-02T02:36:20;47.01;42.33;52.79;;
71628;Laerm;59477;52.374;9.916;2023-05-02T02:38:35;46.34;41.76;53.62;;
71628;Laerm;59477;52.374;9.916;2023-05-02T02:40:43;47.88;42.90;55.64;;
71628;Laerm;59477;52.374;9.916;2023-05-02T02:42:54;48.65;43.17;58.19;;
71628;Laerm;59477;52.374;9.916;2023-05-02T02:45:15;47.05;41.26;54.39;;
71628;Laerm;59477;52.374;9.916;2023-05-02T02:47:23;45.91;41.72;52.53;;
71628;Laerm;59477;52.374;9.916;2023-05-02T02:51:31;46.28;41.65;51.17;;
71628;Laerm;59477;52.374;9.916;2023-05-02T02:53:42;46.82;41.32;55.47;;
71628;Laerm;59477;52.374;9.916;2023-05-02T02:55:47;49.07;42.07;59.29;;
71628;Laerm;59477;52.374;9.916;2023-05-02T03:00:17;53.47;43.09;64.45;;
71628;Laerm;59477;52.374;9.916;2023-05-02T03:02:19;52.35;40.58;62.86;;
71628;Laerm;59477;52.374;9.916;2023-05-02T03:04:22;47.61;42.26;60.01;;
71628;Laerm;59477;52.374;9.916;2023-05-02T03:06:35;49.09;42.72;59.35;;
71628;Laerm;59477;52.374;9.916;2023-05-02T03:08:39;48.39;41.44;57.89;;
71628;Laerm;59477;52.374;9.916;2023-05-02T03:10:40;49.73;42.95;61.55;;
71628;Laerm;59477;52.374;9.916;2023-05-02T03:12:41;51.56;45.43;65.36;;
71628;Laerm;59477;52.374;9.916;2023-05-02T03:14:42;50.07;44.53;61.94;;
71628;Laerm;59477;52.374;9.916;2023-05-02T03:16:43;49.83;44.72;58.40;;
71628;Laerm;59477;52.374;9.916;2023-05-02T03:18:44;50.56;45.06;61.61;;
71628;Laerm;59477;52.374;9.916;2023-05-02T03:20:44;50.28;45.02;62.51;;
71628;Laerm;59477;52.374;9.916;2023-05-02T03:22:45;51.57;46.18;60.89;;
71628;Laerm;59477;52.374;9.916;2023-05-02T03:24:46;51.61;46.76;60.79;;
71628;Laerm;59477;52.374;9.916;2023-05-02T03:26:46;51.79;46.47;62.08;;
71628;Laerm;59477;52.374;9.916;2023-05-02T03:28:47;51.62;46.60;61.29;;
71628;Laerm;59477;52.374;9.916;2023-05-02T03:30:48;58.20;47.22;69.89;;
71628;Laerm;59477;52.374;9.916;2023-05-02T03:32:48;50.86;45.03;66.27;;
71628;Laerm;59477;52.374;9.916;2023-05-02T03:34:49;49.20;42.11;59.17;;
71628;Laerm;59477;52.374;9.916;2023-05-02T03:36:49;51.26;44.64;58.98;;
71628;Laerm;59477;52.374;9.916;2023-05-02T03:38:50;51.02;44.56;58.16;;
71628;Laerm;59477;52.374;9.916;2023-05-02T03:40:51;54.96;44.87;67.59;;
71628;Laerm;59477;52.374;9.916;2023-05-02T03:42:51;50.67;44.93;57.64;;
71628;Laerm;59477;52.374;9.916;2023-05-02T03:44:52;50.43;45.74;57.97;;
71628;Laerm;59477;52.374;9.916;2023-05-02T03:46:53;50.27;43.97;63.46;;
71628;Laerm;59477;52.374;9.916;2023-05-02T03:48:53;55.51;45.66;68.28;;
71628;Laerm;59477;52.374;9.916;2023-05-02T03:50:54;52.88;43.81;69.80;;
71628;Laerm;59477;52.374;9.916;2023-05-02T03:52:54;54.37;44.37;68.55;;
71628;Laerm;59477;52.374;9.916;2023-05-02T03:54:55;58.30;46.68;67.87;;
71628;Laerm;59477;52.374;9.916;2023-05-02T03:56:56;51.99;44.65;65.10;;
71628;Laerm;59477;52.374;9.916;2023-05-02T03:58:57;52.63;44.48;69.26;;
71628;Laerm;59477;52.374;9.916;2023-05-02T04:00:58;50.12;46.01;54.51;;
71628;Laerm;59477;52.374;9.916;2023-05-02T04:03:01;50.86;44.13;67.76;;
71628;Laerm;59477;52.374;9.916;2023-05-02T04:05:02;53.31;46.97;69.75;;
71628;Laerm;59477;52.374;9.916;2023-05-02T04:07:03;51.82;47.76;61.22;;
71628;Laerm;59477;52.374;9.916;2023-05-02T04:09:04;50.95;45.20;63.53;;
71628;Laerm;59477;52.374;9.916;2023-05-02T04:11:05;49.97;45.12;55.94;;
71628;Laerm;59477;52.374;9.916;2023-05-02T04:13:06;50.37;44.19;56.89;;
71628;Laerm;59477;52.374;9.916;2023-05-02T04:15:07;53.65;46.72;65.99;;
71628;Laerm;59477;52.374;9.916;2023-05-02T04:17:07;50.46;46.21;56.05;;
71628;Laerm;59477;52.374;9.916;2023-05-02T04:19:08;50.22;46.22;59.66;;
71628;Laerm;59477;52.374;9.916;2023-05-02T04:21:10;52.16;46.77;58.91;;
71628;Laerm;59477;52.374;9.916;2023-05-02T04:23:11;51.83;46.38;67.23;;
71628;Laerm;59477;52.374;9.916;2023-05-02T04:25:12;50.29;45.92;62.39;;
71628;Laerm;59477;52.374;9.916;2023-05-02T04:27:12;51.53;46.52;63.71;;
71628;Laerm;59477;52.374;9.916;2023-05-02T04:29:13;50.37;44.69;64.08;;
71628;Laerm;59477;52.374;9.916;2023-05-02T04:31:13;56.17;45.89;67.29;;
71628;Laerm;59477;52.374;9.916;2023-05-02T04:33:16;49.19;44.91;54.42;;
71628;Laerm;59477;52.374;9.916;2023-05-02T04:35:17;54.05;44.61;62.84;;
71628;Laerm;59477;52.374;9.916;2023-05-02T04:37:18;50.13;45.46;55.64;;
71628;Laerm;59477;52.374;9.916;2023-05-02T04:39:19;51.39;46.21;59.28;;
71628;Laerm;59477;52.374;9.916;2023-05-02T04:41:19;59.99;48.38;71.70;;
71628;Laerm;59477;52.374;9.916;2023-05-02T04:43:20;51.95;47.24;58.80;;
71628;Laerm;59477;52.374;9.916;2023-05-02T04:45:21;55.04;48.42;62.13;;
71628;Laerm;59477;52.374;9.916;2023-05-02T04:47:22;52.65;47.79;65.87;;
71628;Laerm;59477;52.374;9.916;2023-05-02T04:49:22;51.06;46.94;55.86;;
71628;Laerm;59477;52.374;9.916;2023-05-02T04:51:23;51.38;47.63;61.46;;
71628;Laerm;59477;52.374;9.916;2023-05-02T04:53:23;50.85;47.28;57.46;;
71628;Laerm;59477;52.374;9.916;2023-05-02T04:55:24;50.84;46.87;60.13;;
71628;Laerm;59477;52.374;9.916;2023-05-02T04:57:25;53.39;47.38;66.01;;
71628;Laerm;59477;52.374;9.916;2023-05-02T04:59:25;51.42;46.92;63.56;;
71628;Laerm;59477;52.374;9.916;2023-05-02T05:01:26;54.73;50.30;63.82;;
71628;Laerm;59477;52.374;9.916;2023-05-02T05:03:30;54.33;50.11;64.41;;
71628;Laerm;59477;52.374;9.916;2023-05-02T05:05:32;53.45;48.98;61.05;;
71628;Laerm;59477;52.374;9.916;2023-05-02T05:07:33;53.17;48.80;60.51;;
71628;Laerm;59477;52.374;9.916;2023-05-02T05:09:33;52.76;49.15;58.63;;
71628;Laerm;59477;52.374;9.916;2023-05-02T05:11:34;53.28;49.17;69.96;;
71628;Laerm;59477;52.374;9.916;2023-05-02T05:13:35;54.14;49.98;69.24;;
71628;Laerm;59477;52.374;9.916;2023-05-02T05:15:36;55.11;50.15;67.38;;
71628;Laerm;59477;52.374;9.916;2023-05-02T05:17:38;53.55;49.35;60.25;;
71628;Laerm;59477;52.374;9.916;2023-05-02T05:19:39;54.46;50.09;58.99;;
71628;Laerm;59477;52.374;9.916;2023-05-02T05:21:39;54.52;48.26;64.75;;
71628;Laerm;59477;52.374;9.916;2023-05-02T05:23:40;53.60;49.11;60.08;;
71628;Laerm;59477;52.374;9.916;2023-05-02T05:25:45;53.35;48.87;62.63;;
71628;Laerm;59477;52.374;9.916;2023-05-02T05:27:46;55.04;49.64;67.76;;
71628;Laerm;59477;52.374;9.916;2023-05-02T05:29:46;55.08;49.49;66.84;;
71628;Laerm;59477;52.374;9.916;2023-05-02T05:31:47;55.34;48.24;72.11;;
71628;Laerm;59477;52.374;9.916;2023-05-02T05:33:48;56.53;49.25;71.59;;
71628;Laerm;59477;52.374;9.916;2023-05-02T05:35:48;54.95;48.56;66.65;;
71628;Laerm;59477;52.374;9.916;2023-05-02T05:37:49;55.02;48.34;66.91;;
71628;Laerm;59477;52.374;9.916;2023-05-02T05:39:49;54.69;48.61;68.89;;
71628;Laerm;59477;52.374;9.916;2023-05-02T05:41:50;57.38;50.47;73.00;;
71628;Laerm;59477;52.374;9.916;2023-05-02T05:43:51;57.39;50.19;75.47;;
71628;Laerm;59477;52.374;9.916;2023-05-02T05:45:52;54.23;49.50;65.55;;
71628;Laerm;59477;52.374;9.916;2023-05-02T05:47:53;53.51;48.90;62.10;;
71628;Laerm;59477;52.374;9.916;2023-05-02T05:49:55;55.45;49.78;63.23;;
71628;Laerm;59477;52.374;9.916;2023-05-02T05:51:55;57.22;49.44;80.00;;
71628;Laerm;59477;52.374;9.916;2023-05-02T05:53:56;57.10;50.57;72.13;;
71628;Laerm;59477;52.374;9.916;2023-05-02T05:55:56;55.96;49.45;70.19;;
71628;Laerm;59477;52.374;9.916;2023-05-02T05:57:57;57.98;50.88;74.92;;
71628;Laerm;59477;52.374;9.916;2023-05-02T05:59:57;56.11;50.16;70.95;;
71628;Laerm;59477;52.374;9.916;2023-05-02T06:01:58;56.28;50.33;71.67;;
71628;Laerm;59477;52.374;9.916;2023-05-02T06:03:58;56.49;50.52;73.30;;
71628;Laerm;59477;52.374;9.916;2023-05-02T06:05:59;57.48;49.45;78.94;;
71628;Laerm;59477;52.374;9.916;2023-05-02T06:08:00;56.51;49.50;75.75;;
71628;Laerm;59477;52.374;9.916;2023-05-02T06:10:00;56.09;50.86;70.22;;
71628;Laerm;59477;52.374;9.916;2023-05-02T06:12:01;54.41;50.03;58.22;;
71628;Laerm;59477;52.374;9.916;2023-05-02T06:14:01;55.22;50.29;67.70;;
71628;Laerm;59477;52.374;9.916;2023-05-02T06:16:02;57.88;50.17;83.25;;
71628;Laerm;59477;52.374;9.916;2023-05-02T06:18:02;54.96;50.69;62.04;;
71628;Laerm;59477;52.374;9.916;2023-05-02T06:20:03;54.12;49.41;66.42;;
71628;Laerm;59477;52.374;9.916;2023-05-02T06:22:04;54.27;49.58;61.77;;
71628;Laerm;59477;52.374;9.916;2023-05-02T06:24:05;54.57;48.86;67.34;;
71628;Laerm;59477;52.374;9.916;2023-05-02T06:26:07;54.07;49.13;68.21;;
71628;Laerm;59477;52.374;9.916;2023-05-02T06:28:09;54.60;49.34;68.94;;
71628;Laerm;59477;52.374;9.916;2023-05-02T06:30:10;53.85;48.48;64.57;;
71628;Laerm;59477;52.374;9.916;2023-05-02T06:32:10;54.61;48.39;64.06;;
71628;Laerm;59477;52.374;9.916;2023-05-02T06:34:11;53.45;48.46;67.22;;
71628;Laerm;59477;52.374;9.916;2023-05-02T06:36:11;53.13;48.22;60.51;;
71628;Laerm;59477;52.374;9.916;2023-05-02T06:38:12;51.77;47.71;56.85;;
71628;Laerm;59477;52.374;9.916;2023-05-02T06:40:12;51.76;47.58;58.75;;
71628;Laerm;59477;52.374;9.916;2023-05-02T06:42:13;53.05;47.24;62.68;;
71628;Laerm;59477;52.374;9.916;2023-05-02T06:44:14;55.70;47.89;69.29;;
71628;Laerm;59477;52.374;9.916;2023-05-02T06:46:14;56.22;47.74;64.66;;
71628;Laerm;59477;52.374;9.916;2023-05-02T06:48:15;52.73;47.98;60.33;;
71628;Laerm;59477;52.374;9.916;2023-05-02T06:50:15;54.26;48.36;60.44;;
71628;Laerm;59477;52.374;9.916;2023-05-02T06:52:16;52.19;47.38;61.48;;
71628;Laerm;59477;52.374;9.916;2023-05-02T06:54:17;53.30;47.34;60.05;;
71628;Laerm;59477;52.374;9.916;2023-05-02T06:56:17;52.87;48.30;60.63;;
71628;Laerm;59477;52.374;9.916;2023-05-02T06:58:18;54.35;48.10;61.75;;
71628;Laerm;59477;52.374;9.916;2023-05-02T07:00:18;55.18;47.56;66.34;;
71628;Laerm;59477;52.374;9.916;2023-05-02T07:02:22;51.44;47.12;58.59;;
71628;Laerm;59477;52.374;9.916;2023-05-02T07:04:22;53.00;47.30;61.34;;
71628;Laerm;59477;52.374;9.916;2023-05-02T07:06:23;51.68;47.56;59.75;;
71628;Laerm;59477;52.374;9.916;2023-05-02T07:08:23;52.45;47.36;65.60;;
71628;Laerm;59477;52.374;9.916;2023-05-02T07:10:24;57.54;49.12;66.24;;
71628;Laerm;59477;52.374;9.916;2023-05-02T07:12:25;56.01;48.49;68.20;;
71628;Laerm;59477;52.374;9.916;2023-05-02T07:14:26;54.01;47.24;67.49;;
71628;Laerm;59477;52.374;9.916;2023-05-02T07:16:26;54.47;48.49;69.91;;
71628;Laerm;59477;52.374;9.916;2023-05-02T07:18:27;51.91;47.81;63.32;;
71628;Laerm;59477;52.374;9.916;2023-05-02T07:20:27;54.62;48.06;65.36;;
71628;Laerm;59477;52.374;9.916;2023-05-02T07:22:28;55.33;48.00;68.68;;
71628;Laerm;59477;52.374;9.916;2023-05-02T07:24:29;53.21;46.60;69.25;;
71628;Laerm;59477;52.374;9.916;2023-05-02T07:26:29;55.16;48.28;71.33;;
71628;Laerm;59477;52.374;9.916;2023-05-02T07:28:30;50.94;45.89;63.27;;
71628;Laerm;59477;52.374;9.916;2023-05-02T07:30:30;51.20;46.60;57.89;;
71628;Laerm;59477;52.374;9.916;2023-05-02T07:32:31;51.19;46.35;59.69;;
71628;Laerm;59477;52.374;9.916;2023-05-02T07:34:31;50.84;45.57;61.72;;
71628;Laerm;59477;52.374;9.916;2023-05-02T07:36:32;61.11;47.23;75.46;;
71628;Laerm;59477;52.374;9.916;2023-05-02T07:38:32;55.03;45.95;79.53;;
71628;Laerm;59477;52.374;9.916;2023-05-02T07:40:33;52.66;47.67;59.08;;
71628;Laerm;59477;52.374;9.916;2023-05-02T07:42:34;52.11;46.23;64.79;;
71628;Laerm;59477;52.374;9.916;2023-05-02T07:44:35;60.50;46.92;74.00;;
71628;Laerm;59477;52.374;9.916;2023-05-02T07:46:36;52.30;47.58;61.98;;
71628;Laerm;59477;52.374;9.916;2023-05-02T07:48:37;51.50;46.94;61.21;;
71628;Laerm;59477;52.374;9.916;2023-05-02T07:50:38;53.29;46.09;61.92;;
71628;Laerm;59477;52.374;9.916;2023-05-02T07:52:39;54.11;47.38;66.78;;
71628;Laerm;59477;52.374;9.916;2023-05-02T07:54:39;54.85;47.72;69.61;;
71628;Laerm;59477;52.374;9.916;2023-05-02T07:56:41;54.76;49.05;66.26;;
71628;Laerm;59477;52.374;9.916;2023-05-02T07:58:41;55.03;48.17;73.56;;
71628;Laerm;59477;52.374;9.916;2023-05-02T08:00:42;52.13;46.70;64.13;;
71628;Laerm;59477;52.374;9.916;2023-05-02T08:02:43;52.56;47.22;67.66;;
71628;Laerm;59477;52.374;9.916;2023-05-02T08:04:48;53.86;46.42;65.98;;
71628;Laerm;59477;52.374;9.916;2023-05-02T08:06:49;52.44;46.41;69.88;;
71628;Laerm;59477;52.374;9.916;2023-05-02T08:08:49;50.82;45.74;64.02;;
71628;Laerm;59477;52.374;9.916;2023-05-02T08:10:50;51.26;45.19;61.35;;
71628;Laerm;59477;52.374;9.916;2023-05-02T08:12:50;52.56;45.99;64.43;;
71628;Laerm;59477;52.374;9.916;2023-05-02T08:14:51;55.21;46.05;72.10;;
71628;Laerm;59477;52.374;9.916;2023-05-02T08:16:51;52.06;45.87;60.55;;
71628;Laerm;59477;52.374;9.916;2023-05-02T08:18:52;62.06;46.73;74.26;;
71628;Laerm;59477;52.374;9.916;2023-05-02T08:20:54;52.76;44.98;66.93;;
71628;Laerm;59477;52.374;9.916;2023-05-02T08:22:55;52.21;45.23;66.95;;
71628;Laerm;59477;52.374;9.916;2023-05-02T08:24:55;51.95;45.67;63.39;;
71628;Laerm;59477;52.374;9.916;2023-05-02T08:26:56;51.21;46.00;65.64;;
71628;Laerm;59477;52.374;9.916;2023-05-02T08:28:56;54.01;46.31;75.92;;
71628;Laerm;59477;52.374;9.916;2023-05-02T08:30:57;52.40;45.37;68.11;;
71628;Laerm;59477;52.374;9.916;2023-05-02T08:32:57;50.10;45.71;64.19;;
71628;Laerm;59477;52.374;9.916;2023-05-02T08:34:58;53.48;46.06;70.17;;
71628;Laerm;59477;52.374;9.916;2023-05-02T08:36:58;51.87;45.36;67.78;;
71628;Laerm;59477;52.374;9.916;2023-05-02T08:38:59;52.93;46.28;66.49;;
71628;Laerm;59477;52.374;9.916;2023-05-02T08:41:00;55.32;46.93;72.35;;
71628;Laerm;59477;52.374;9.916;2023-05-02T08:43:01;51.92;45.67;68.01;;
71628;Laerm;59477;52.374;9.916;2023-05-02T08:45:02;51.39;44.34;66.76;;
71628;Laerm;59477;52.374;9.916;2023-05-02T08:47:03;51.47;45.82;66.67;;
71628;Laerm;59477;52.374;9.916;2023-05-02T08:49:05;54.98;45.96;68.24;;
71628;Laerm;59477;52.374;9.916;2023-05-02T08:51:09;50.82;46.58;58.16;;
71628;Laerm;59477;52.374;9.916;2023-05-02T08:53:11;56.79;47.80;71.45;;
71628;Laerm;59477;52.374;9.916;2023-05-02T08:55:13;52.25;46.34;63.29;;
71628;Laerm;59477;52.374;9.916;2023-05-02T08:57:14;51.66;47.13;64.16;;
71628;Laerm;59477;52.374;9.916;2023-05-02T08:59:15;53.68;46.77;65.21;;
71628;Laerm;59477;52.374;9.916;2023-05-02T09:01:16;54.33;46.25;73.11;;
71628;Laerm;59477;52.374;9.916;2023-05-02T09:03:22;53.33;47.20;66.05;;
71628;Laerm;59477;52.374;9.916;2023-05-02T09:05:25;52.42;46.29;63.44;;
71628;Laerm;59477;52.374;9.916;2023-05-02T09:07:26;50.59;46.16;61.01;;
71628;Laerm;59477;52.374;9.916;2023-05-02T09:09:30;54.28;46.54;74.68;;
71628;Laerm;59477;52.374;9.916;2023-05-02T09:11:38;56.36;47.79;72.80;;
71628;Laerm;59477;52.374;9.916;2023-05-02T09:13:45;52.74;46.85;62.45;;
71628;Laerm;59477;52.374;9.916;2023-05-02T09:16:05;58.67;47.78;72.09;;
71628;Laerm;59477;52.374;9.916;2023-05-02T09:18:06;52.82;46.24;69.21;;
71628;Laerm;59477;52.374;9.916;2023-05-02T09:20:07;52.90;47.03;69.03;;
71628;Laerm;59477;52.374;9.916;2023-05-02T09:22:07;54.14;46.84;68.17;;
71628;Laerm;59477;52.374;9.916;2023-05-02T09:24:14;54.41;47.34;65.47;;
71628;Laerm;59477;52.374;9.916;2023-05-02T09:28:20;50.64;45.22;63.76;;
71628;Laerm;59477;52.374;9.916;2023-05-02T09:32:21;56.33;48.28;68.99;;
71628;Laerm;59477;52.374;9.916;2023-05-02T09:35:03;54.39;47.07;69.72;;
71628;Laerm;59477;52.374;9.916;2023-05-02T09:37:03;60.47;46.98;73.28;;
71628;Laerm;59477;52.374;9.916;2023-05-02T09:39:09;53.76;45.99;67.77;;
71628;Laerm;59477;52.374;9.916;2023-05-02T09:41:10;53.03;46.38;67.80;;
71628;Laerm;59477;52.374;9.916;2023-05-02T09:43:14;50.75;46.26;58.67;;
71628;Laerm;59477;52.374;9.916;2023-05-02T09:45:18;50.63;45.47;65.45;;
71628;Laerm;59477;52.374;9.916;2023-05-02T09:47:26;49.87;45.05;60.47;;
71628;Laerm;59477;52.374;9.916;2023-05-02T09:49:59;56.62;45.67;70.61;;
71628;Laerm;59477;52.374;9.916;2023-05-02T09:51:53;50.76;46.03;63.56;;
71628;Laerm;59477;52.374;9.916;2023-05-02T09:54:09;50.29;44.40;59.54;;
71628;Laerm;59477;52.374;9.916;2023-05-02T09:56:09;49.06;44.31;57.02;;
71628;Laerm;59477;52.374;9.916;2023-05-02T09:58:20;55.41;44.65;80.56;;
71628;Laerm;59477;52.374;9.916;2023-05-02T10:00:41;50.30;44.42;61.78;;
71628;Laerm;59477;52.374;9.916;2023-05-02T10:02:50;54.81;46.18;69.78;;
71628;Laerm;59477;52.374;9.916;2023-05-02T10:04:52;60.62;45.00;85.13;;
71628;Laerm;59477;52.374;9.916;2023-05-02T10:06:53;54.63;45.76;68.30;;
71628;Laerm;59477;52.374;9.916;2023-05-02T10:08:54;54.08;46.53;69.50;;
71628;Laerm;59477;52.374;9.916;2023-05-02T10:10:56;52.69;45.98;66.20;;
71628;Laerm;59477;52.374;9.916;2023-05-02T10:12:57;51.33;45.56;62.68;;
71628;Laerm;59477;52.374;9.916;2023-05-02T10:14:59;49.75;43.86;62.34;;
71628;Laerm;59477;52.374;9.916;2023-05-02T10:17:10;52.95;42.03;68.88;;
71628;Laerm;59477;52.374;9.916;2023-05-02T10:19:12;53.75;46.20;70.46;;
71628;Laerm;59477;52.374;9.916;2023-05-02T10:21:16;56.25;45.64;73.86;;
71628;Laerm;59477;52.374;9.916;2023-05-02T10:23:19;52.44;45.17;68.70;;
71628;Laerm;59477;52.374;9.916;2023-05-02T10:25:20;53.42;44.62;75.57;;
71628;Laerm;59477;52.374;9.916;2023-05-02T10:27:21;51.37;46.37;62.45;;
71628;Laerm;59477;52.374;9.916;2023-05-02T10:29:22;50.68;44.91;56.79;;
71628;Laerm;59477;52.374;9.916;2023-05-02T10:31:23;50.12;45.14;64.17;;
71628;Laerm;59477;52.374;9.916;2023-05-02T10:33:24;49.14;44.81;56.01;;
71628;Laerm;59477;52.374;9.916;2023-05-02T10:35:25;51.42;45.63;62.29;;
71628;Laerm;59477;52.374;9.916;2023-05-02T10:37:26;52.84;44.86;67.45;;
71628;Laerm;59477;52.374;9.916;2023-05-02T10:39:30;57.99;46.90;78.83;;
71628;Laerm;59477;52.374;9.916;2023-05-02T10:41:32;55.27;46.17;66.57;;
71628;Laerm;59477;52.374;9.916;2023-05-02T10:43:33;49.99;44.83;60.94;;
71628;Laerm;59477;52.374;9.916;2023-05-02T10:45:35;52.30;45.83;68.03;;
71628;Laerm;59477;52.374;9.916;2023-05-02T10:47:36;53.29;46.30;76.20;;
71628;Laerm;59477;52.374;9.916;2023-05-02T10:49:48;50.84;43.95;66.90;;
71628;Laerm;59477;52.374;9.916;2023-05-02T10:51:49;49.80;43.37;61.38;;
71628;Laerm;59477;52.374;9.916;2023-05-02T10:53:49;49.57;44.46;65.85;;
71628;Laerm;59477;52.374;9.916;2023-05-02T10:58:27;50.46;44.68;64.07;;
71628;Laerm;59477;52.374;9.916;2023-05-02T11:00:28;48.81;44.11;62.76;;
71628;Laerm;59477;52.374;9.916;2023-05-02T11:02:45;54.25;45.06;71.30;;
71628;Laerm;59477;52.374;9.916;2023-05-02T11:05:05;59.49;47.91;69.01;;
71628;Laerm;59477;52.374;9.916;2023-05-02T11:09:49;56.80;45.07;70.26;;
71628;Laerm;59477;52.374;9.916;2023-05-02T11:12:04;54.23;46.31;69.67;;
71628;Laerm;59477;52.374;9.916;2023-05-02T11:13:57;49.94;43.70;64.08;;
71628;Laerm;59477;52.374;9.916;2023-05-02T11:15:58;52.73;46.76;69.07;;
71628;Laerm;59477;52.374;9.916;2023-05-02T11:17:59;50.19;45.17;63.83;;
71628;Laerm;59477;52.374;9.916;2023-05-02T11:24:36;50.24;45.28;58.53;;
71628;Laerm;59477;52.374;9.916;2023-05-02T11:26:37;49.63;44.46;61.54;;
71628;Laerm;59477;52.374;9.916;2023-05-02T11:28:48;48.91;44.19;57.94;;
71628;Laerm;59477;52.374;9.916;2023-05-02T11:30:49;49.45;45.07;58.98;;
71628;Laerm;59477;52.374;9.916;2023-05-02T11:34:52;49.94;42.29;63.65;;
71628;Laerm;59477;52.374;9.916;2023-05-02T11:36:54;52.41;44.58;70.38;;
71628;Laerm;59477;52.374;9.916;2023-05-02T11:38:55;53.28;44.88;66.09;;
71628;Laerm;59477;52.374;9.916;2023-05-02T11:40:56;49.16;44.56;58.77;;
71628;Laerm;59477;52.374;9.916;2023-05-02T11:42:58;48.69;43.93;59.20;;
71628;Laerm;59477;52.374;9.916;2023-05-02T11:45:00;48.74;44.53;60.31;;
71628;Laerm;59477;52.374;9.916;2023-05-02T11:47:01;51.36;43.71;64.14;;
71628;Laerm;59477;52.374;9.916;2023-05-02T11:49:02;51.37;44.75;70.53;;
71628;Laerm;59477;52.374;9.916;2023-05-02T11:51:03;53.78;46.17;65.52;;
71628;Laerm;59477;52.374;9.916;2023-05-02T11:53:08;50.17;44.87;60.68;;
71628;Laerm;59477;52.374;9.916;2023-05-02T11:55:10;51.80;43.01;67.29;;
71628;Laerm;59477;52.374;9.916;2023-05-02T11:57:11;53.55;44.52;65.62;;
71628;Laerm;59477;52.374;9.916;2023-05-02T11:59:11;57.29;46.21;68.57;;